SBUL

Details ICAO SBUL (UDI)
Name Uberlandia Airport Ten Cel AV Cesar Bombonato
Region Brazil
Timezone America/Sao_Paulo (UTC-3.0)
Plans Departing 62
Arriving 44
Stats Elevation 3,094 ft / 943 m (AMSL)
Location -18.883500° -48.225900°
Runways 1
Magnetic Variation 21.361° W
Sunrise 2018-10-19 08:41:36 UTC / 2018-10-19 05:41:36 Local
Sunset 2018-10-19 21:16:25 UTC / 2018-10-19 18:16:25 Local
Advertisement - Login to hide

Runways

ID Width Length Bearing (true/mag) Surface Threshold Overrun Markings Lighting
04 148 ft / 45 m 6,920 ft / 2,109 m 22.57° / 43.94° ASPHALT 0 ft / 0 m 0 ft / 0 m PREC-APP EDGE THRESHOLD
22 148 ft / 45 m 6,920 ft / 2,109 m 202.57° / 223.93° ASPHALT 0 ft / 0 m 0 ft / 0 m PREC-APP EDGE THRESHOLD

Map

Weather


0- 5 10 15 20 25 30 35+ Temperature / °C

Clouds and Precipitation
Forecast for 2018-10-19 12:00 UTC. Updated an hour ago

Ground ~20,000 ft ~40,000 ft Winds

METAR

Not found

TAF

TAF TAF SBUL 190130Z 1906/1918 08005KT 8000 NSCTN22/1909Z TX31/1917Z PROB30 1907/1908 BKN004 BECMG 1908/1910 06005KT BECMG 1910/1912 35005KT SCT030 BECMG 1914/1916 25005KT PROB30 1917/1918 17007KT TS SCT030 FEW040CB RMK PHG

Frequencies

Approach 120.80 MHz Uberlandia Approach
Tower 118.80 MHz Uberlandia Tower
Warning: Do not use this data for real-world aviation or navigation. No guarantee of current accuracy is given.